sensor_id;sensor_type;location;lat;lon;timestamp;temperature;humidity
56729;DHT22;42612;52.232;7.560;2022-08-19T00:01:58;23.80;51.00
56729;DHT22;42612;52.232;7.560;2022-08-19T00:04:44;23.70;50.80
56729;DHT22;42612;52.232;7.560;2022-08-19T00:07:32;23.70;50.80
56729;DHT22;42612;52.232;7.560;2022-08-19T00:10:18;23.70;50.90
56729;DHT22;42612;52.232;7.560;2022-08-19T00:13:05;23.70;51.00
56729;DHT22;42612;52.232;7.560;2022-08-19T00:15:51;23.60;51.60
56729;DHT22;42612;52.232;7.560;2022-08-19T00:18:37;23.60;50.90
56729;DHT22;42612;52.232;7.560;2022-08-19T00:21:23;23.60;51.00
56729;DHT22;42612;52.232;7.560;2022-08-19T00:24:12;23.50;51.10
56729;DHT22;42612;52.232;7.560;2022-08-19T00:27:00;23.50;51.10
56729;DHT22;42612;52.232;7.560;2022-08-19T00:29:47;23.40;51.00
56729;DHT22;42612;52.232;7.560;2022-08-19T00:32:33;23.40;51.00
56729;DHT22;42612;52.232;7.560;2022-08-19T00:35:21;23.40;51.10
56729;DHT22;42612;52.232;7.560;2022-08-19T00:38:08;23.40;51.10
56729;DHT22;42612;52.232;7.560;2022-08-19T00:40:54;23.30;51.00
56729;DHT22;42612;52.232;7.560;2022-08-19T00:43:40;23.30;51.20
56729;DHT22;42612;52.232;7.560;2022-08-19T00:46:27;23.30;51.40
56729;DHT22;42612;52.232;7.560;2022-08-19T00:49:19;23.20;51.30
56729;DHT22;42612;52.232;7.560;2022-08-19T00:52:13;23.20;51.40
56729;DHT22;42612;52.232;7.560;2022-08-19T00:55:01;23.20;51.50
56729;DHT22;42612;52.232;7.560;2022-08-19T00:57:49;23.20;51.50
56729;DHT22;42612;52.232;7.560;2022-08-19T01:00:39;23.10;51.50
56729;DHT22;42612;52.232;7.560;2022-08-19T01:03:25;23.10;51.50
56729;DHT22;42612;52.232;7.560;2022-08-19T01:06:11;23.10;51.60
56729;DHT22;42612;52.232;7.560;2022-08-19T01:08:58;23.10;51.40
56729;DHT22;42612;52.232;7.560;2022-08-19T01:11:44;23.00;51.40
56729;DHT22;42612;52.232;7.560;2022-08-19T01:14:31;23.00;51.30
56729;DHT22;42612;52.232;7.560;2022-08-19T01:17:17;23.00;51.40
56729;DHT22;42612;52.232;7.560;2022-08-19T01:20:04;23.00;51.50
56729;DHT22;42612;52.232;7.560;2022-08-19T01:22:52;22.90;51.40
56729;DHT22;42612;52.232;7.560;2022-08-19T01:25:47;22.90;51.60
56729;DHT22;42612;52.232;7.560;2022-08-19T01:28:35;22.90;51.80
56729;DHT22;42612;52.232;7.560;2022-08-19T01:31:23;22.90;51.90
56729;DHT22;42612;52.232;7.560;2022-08-19T01:34:10;22.90;51.90
56729;DHT22;42612;52.232;7.560;2022-08-19T01:36:56;22.80;51.90
56729;DHT22;42612;52.232;7.560;2022-08-19T01:39:42;22.80;51.90
56729;DHT22;42612;52.232;7.560;2022-08-19T01:42:28;22.80;51.90
56729;DHT22;42612;52.232;7.560;2022-08-19T01:45:15;22.80;51.90
56729;DHT22;42612;52.232;7.560;2022-08-19T01:48:02;22.70;51.80
56729;DHT22;42612;52.232;7.560;2022-08-19T01:50:48;22.80;51.80
56729;DHT22;42612;52.232;7.560;2022-08-19T01:53:34;22.80;51.80
56729;DHT22;42612;52.232;7.560;2022-08-19T01:56:21;22.70;51.80
56729;DHT22;42612;52.232;7.560;2022-08-19T01:59:12;22.70;52.00
56729;DHT22;42612;52.232;7.560;2022-08-19T02:02:00;22.70;52.20
56729;DHT22;42612;52.232;7.560;2022-08-19T02:04:46;22.70;52.40
56729;DHT22;42612;52.232;7.560;2022-08-19T02:07:32;22.70;52.30
56729;DHT22;42612;52.232;7.560;2022-08-19T02:10:20;22.60;52.20
56729;DHT22;42612;52.232;7.560;2022-08-19T02:13:06;22.60;52.20
56729;DHT22;42612;52.232;7.560;2022-08-19T02:15:52;22.60;52.20
56729;DHT22;42612;52.232;7.560;2022-08-19T02:18:38;22.60;52.20
56729;DHT22;42612;52.232;7.560;2022-08-19T02:21:24;22.60;52.30
56729;DHT22;42612;52.232;7.560;2022-08-19T02:24:10;22.60;52.40
56729;DHT22;42612;52.232;7.560;2022-08-19T02:26:56;22.60;52.30
56729;DHT22;42612;52.232;7.560;2022-08-19T02:29:43;22.50;52.30
56729;DHT22;42612;52.232;7.560;2022-08-19T02:32:29;22.50;52.20
56729;DHT22;42612;52.232;7.560;2022-08-19T02:35:16;22.50;52.10
56729;DHT22;42612;52.232;7.560;2022-08-19T02:38:02;22.50;52.00
56729;DHT22;42612;52.232;7.560;2022-08-19T02:41:09;22.50;52.00
56729;DHT22;42612;52.232;7.560;2022-08-19T02:43:59;22.40;52.00
56729;DHT22;42612;52.232;7.560;2022-08-19T02:46:48;22.40;51.90
56729;DHT22;42612;52.232;7.560;2022-08-19T02:49:35;22.40;51.90
56729;DHT22;42612;52.232;7.560;2022-08-19T02:52:21;22.40;52.00
56729;DHT22;42612;52.232;7.560;2022-08-19T02:55:09;22.30;51.90
56729;DHT22;42612;52.232;7.560;2022-08-19T02:57:55;22.30;51.90
56729;DHT22;42612;52.232;7.560;2022-08-19T03:00:43;22.30;52.00
56729;DHT22;42612;52.232;7.560;2022-08-19T03:03:29;22.30;52.00
56729;DHT22;42612;52.232;7.560;2022-08-19T03:06:15;22.30;51.90
56729;DHT22;42612;52.232;7.560;2022-08-19T03:09:02;22.20;51.90
56729;DHT22;42612;52.232;7.560;2022-08-19T03:11:48;22.20;51.90
56729;DHT22;42612;52.232;7.560;2022-08-19T03:14:34;22.20;51.90
56729;DHT22;42612;52.232;7.560;2022-08-19T03:17:20;22.20;51.90
56729;DHT22;42612;52.232;7.560;2022-08-19T03:20:06;22.20;52.00
56729;DHT22;42612;52.232;7.560;2022-08-19T03:22:53;22.10;52.00
56729;DHT22;42612;52.232;7.560;2022-08-19T03:25:40;22.10;52.10
56729;DHT22;42612;52.232;7.560;2022-08-19T03:28:28;22.10;52.30
56729;DHT22;42612;52.232;7.560;2022-08-19T03:31:14;22.10;52.10
56729;DHT22;42612;52.232;7.560;2022-08-19T03:34:01;22.00;52.40
56729;DHT22;42612;52.232;7.560;2022-08-19T03:36:47;22.00;52.30
56729;DHT22;42612;52.232;7.560;2022-08-19T03:39:33;22.00;52.50
56729;DHT22;42612;52.232;7.560;2022-08-19T03:42:21;22.00;52.40
56729;DHT22;42612;52.232;7.560;2022-08-19T03:45:07;22.00;52.40
56729;DHT22;42612;52.232;7.560;2022-08-19T03:47:54;21.90;52.50
56729;DHT22;42612;52.232;7.560;2022-08-19T03:50:40;21.90;52.40
56729;DHT22;42612;52.232;7.560;2022-08-19T03:53:27;22.00;52.60
56729;DHT22;42612;52.232;7.560;2022-08-19T03:56:14;21.90;52.50
56729;DHT22;42612;52.232;7.560;2022-08-19T03:59:00;21.90;52.70
56729;DHT22;42612;52.232;7.560;2022-08-19T04:01:46;21.90;52.60
56729;DHT22;42612;52.232;7.560;2022-08-19T04:04:32;22.00;52.50
56729;DHT22;42612;52.232;7.560;2022-08-19T04:07:18;22.00;52.50
56729;DHT22;42612;52.232;7.560;2022-08-19T04:10:06;21.90;52.60
56729;DHT22;42612;52.232;7.560;2022-08-19T04:12:53;21.90;52.60
56729;DHT22;42612;52.232;7.560;2022-08-19T04:15:40;21.90;52.70
56729;DHT22;42612;52.232;7.560;2022-08-19T04:18:27;21.90;52.60
56729;DHT22;42612;52.232;7.560;2022-08-19T04:21:16;21.90;52.50
56729;DHT22;42612;52.232;7.560;2022-08-19T04:24:04;21.90;52.30
56729;DHT22;42612;52.232;7.560;2022-08-19T04:26:51;21.80;52.30
56729;DHT22;42612;52.232;7.560;2022-08-19T04:29:37;21.80;52.40
56729;DHT22;42612;52.232;7.560;2022-08-19T04:32:24;21.80;52.40
56729;DHT22;42612;52.232;7.560;2022-08-19T04:35:10;21.80;52.30
56729;DHT22;42612;52.232;7.560;2022-08-19T04:37:56;21.80;52.30
56729;DHT22;42612;52.232;7.560;2022-08-19T04:40:45;21.80;52.40
56729;DHT22;42612;52.232;7.560;2022-08-19T04:43:50;21.80;52.40
56729;DHT22;42612;52.232;7.560;2022-08-19T04:46:37;21.80;52.60
56729;DHT22;42612;52.232;7.560;2022-08-19T04:49:23;21.80;52.70
56729;DHT22;42612;52.232;7.560;2022-08-19T04:52:10;21.70;52.50
56729;DHT22;42612;52.232;7.560;2022-08-19T04:54:55;21.70;52.40
56729;DHT22;42612;52.232;7.560;2022-08-19T04:57:41;21.80;52.60
56729;DHT22;42612;52.232;7.560;2022-08-19T05:00:27;21.70;52.50
56729;DHT22;42612;52.232;7.560;2022-08-19T05:03:13;21.70;52.50
56729;DHT22;42612;52.232;7.560;2022-08-19T05:06:06;21.70;52.30
56729;DHT22;42612;52.232;7.560;2022-08-19T05:08:53;21.70;52.30
56729;DHT22;42612;52.232;7.560;2022-08-19T05:11:39;21.70;52.40
56729;DHT22;42612;52.232;7.560;2022-08-19T05:14:25;21.60;52.50
56729;DHT22;42612;52.232;7.560;2022-08-19T05:17:11;21.60;52.60
56729;DHT22;42612;52.232;7.560;2022-08-19T05:19:57;21.60;52.50
56729;DHT22;42612;52.232;7.560;2022-08-19T05:23:01;21.60;52.60
56729;DHT22;42612;52.232;7.560;2022-08-19T05:25:47;21.60;52.70
56729;DHT22;42612;52.232;7.560;2022-08-19T05:28:33;21.60;52.90
56729;DHT22;42612;52.232;7.560;2022-08-19T05:31:19;21.60;53.00
56729;DHT22;42612;52.232;7.560;2022-08-19T05:34:05;21.60;53.00
56729;DHT22;42612;52.232;7.560;2022-08-19T05:36:53;21.60;53.20
56729;DHT22;42612;52.232;7.560;2022-08-19T05:39:42;21.60;53.30
56729;DHT22;42612;52.232;7.560;2022-08-19T05:42:28;21.60;53.40
56729;DHT22;42612;52.232;7.560;2022-08-19T05:45:16;21.60;53.60
56729;DHT22;42612;52.232;7.560;2022-08-19T05:48:02;21.70;53.80
56729;DHT22;42612;52.232;7.560;2022-08-19T05:50:48;21.70;53.80
56729;DHT22;42612;52.232;7.560;2022-08-19T05:53:35;21.80;53.90
56729;DHT22;42612;52.232;7.560;2022-08-19T05:56:21;21.80;53.90
56729;DHT22;42612;52.232;7.560;2022-08-19T05:59:08;21.90;54.10
56729;DHT22;42612;52.232;7.560;2022-08-19T06:02:15;21.90;54.20
56729;DHT22;42612;52.232;7.560;2022-08-19T06:05:02;22.00;54.30
56729;DHT22;42612;52.232;7.560;2022-08-19T06:07:49;22.00;54.40
56729;DHT22;42612;52.232;7.560;2022-08-19T06:10:35;22.10;54.60
56729;DHT22;42612;52.232;7.560;2022-08-19T06:13:22;22.10;54.60
56729;DHT22;42612;52.232;7.560;2022-08-19T06:16:11;22.20;54.70
56729;DHT22;42612;52.232;7.560;2022-08-19T06:18:58;22.30;54.80
56729;DHT22;42612;52.232;7.560;2022-08-19T06:21:46;22.30;54.80
56729;DHT22;42612;52.232;7.560;2022-08-19T06:24:34;22.40;54.80
56729;DHT22;42612;52.232;7.560;2022-08-19T06:27:21;22.50;55.00
56729;DHT22;42612;52.232;7.560;2022-08-19T06:30:07;22.50;55.10
56729;DHT22;42612;52.232;7.560;2022-08-19T06:32:53;22.60;55.20
56729;DHT22;42612;52.232;7.560;2022-08-19T06:35:40;22.70;55.40
56729;DHT22;42612;52.232;7.560;2022-08-19T06:38:26;22.70;55.40
56729;DHT22;42612;52.232;7.560;2022-08-19T06:41:12;22.80;55.30
56729;DHT22;42612;52.232;7.560;2022-08-19T06:43:59;22.90;55.30
56729;DHT22;42612;52.232;7.560;2022-08-19T06:46:45;22.90;55.00
56729;DHT22;42612;52.232;7.560;2022-08-19T06:49:31;23.00;55.00
56729;DHT22;42612;52.232;7.560;2022-08-19T06:52:17;23.00;54.90
56729;DHT22;42612;52.232;7.560;2022-08-19T06:55:03;23.10;55.10
56729;DHT22;42612;52.232;7.560;2022-08-19T06:57:49;23.10;55.20
56729;DHT22;42612;52.232;7.560;2022-08-19T07:00:38;23.20;55.20
56729;DHT22;42612;52.232;7.560;2022-08-19T07:03:24;23.20;55.70
56729;DHT22;42612;52.232;7.560;2022-08-19T07:06:11;23.30;55.70
56729;DHT22;42612;52.232;7.560;2022-08-19T07:09:00;23.40;55.60
56729;DHT22;42612;52.232;7.560;2022-08-19T07:11:47;23.40;55.50
56729;DHT22;42612;52.232;7.560;2022-08-19T07:14:34;23.50;55.30
56729;DHT22;42612;52.232;7.560;2022-08-19T07:17:22;23.50;55.50
56729;DHT22;42612;52.232;7.560;2022-08-19T07:20:09;23.60;55.30
56729;DHT22;42612;52.232;7.560;2022-08-19T07:22:55;23.60;55.40
56729;DHT22;42612;52.232;7.560;2022-08-19T07:25:41;23.70;55.30
56729;DHT22;42612;52.232;7.560;2022-08-19T07:28:28;23.80;55.40
56729;DHT22;42612;52.232;7.560;2022-08-19T07:31:15;23.80;55.20
56729;DHT22;42612;52.232;7.560;2022-08-19T07:34:07;23.90;55.20
56729;DHT22;42612;52.232;7.560;2022-08-19T07:36:55;24.00;55.20
56729;DHT22;42612;52.232;7.560;2022-08-19T07:39:41;24.00;55.10
56729;DHT22;42612;52.232;7.560;2022-08-19T07:42:27;24.10;55.20
56729;DHT22;42612;52.232;7.560;2022-08-19T07:45:15;24.10;55.30
56729;DHT22;42612;52.232;7.560;2022-08-19T07:48:01;24.20;55.80
56729;DHT22;42612;52.232;7.560;2022-08-19T07:50:47;24.30;55.20
56729;DHT22;42612;52.232;7.560;2022-08-19T07:53:34;24.40;55.30
56729;DHT22;42612;52.232;7.560;2022-08-19T07:56:21;24.40;55.20
56729;DHT22;42612;52.232;7.560;2022-08-19T07:59:07;24.50;55.20
56729;DHT22;42612;52.232;7.560;2022-08-19T08:01:55;24.60;55.10
56729;DHT22;42612;52.232;7.560;2022-08-19T08:04:41;24.70;55.00
56729;DHT22;42612;52.232;7.560;2022-08-19T08:07:46;24.70;54.90
56729;DHT22;42612;52.232;7.560;2022-08-19T08:10:50;24.80;55.20
56729;DHT22;42612;52.232;7.560;2022-08-19T08:13:36;24.90;54.80
56729;DHT22;42612;52.232;7.560;2022-08-19T08:16:22;24.90;54.80
56729;DHT22;42612;52.232;7.560;2022-08-19T08:19:11;25.00;54.70
56729;DHT22;42612;52.232;7.560;2022-08-19T08:22:01;25.10;54.70
56729;DHT22;42612;52.232;7.560;2022-08-19T08:24:47;25.20;54.60
56729;DHT22;42612;52.232;7.560;2022-08-19T08:27:40;25.20;54.40
56729;DHT22;42612;52.232;7.560;2022-08-19T08:30:27;25.30;54.30
56729;DHT22;42612;52.232;7.560;2022-08-19T08:33:18;25.40;54.30
56729;DHT22;42612;52.232;7.560;2022-08-19T08:36:07;25.40;54.20
56729;DHT22;42612;52.232;7.560;2022-08-19T08:38:53;25.50;54.20
56729;DHT22;42612;52.232;7.560;2022-08-19T08:45:00;25.60;54.00
56729;DHT22;42612;52.232;7.560;2022-08-19T08:47:52;25.60;53.90
56729;DHT22;42612;52.232;7.560;2022-08-19T08:50:41;25.70;53.90
56729;DHT22;42612;52.232;7.560;2022-08-19T08:53:28;25.80;53.90
56729;DHT22;42612;52.232;7.560;2022-08-19T08:56:17;25.80;53.90
56729;DHT22;42612;52.232;7.560;2022-08-19T08:59:06;25.90;53.90
56729;DHT22;42612;52.232;7.560;2022-08-19T09:01:55;25.90;54.00
56729;DHT22;42612;52.232;7.560;2022-08-19T09:04:41;26.00;54.00
56729;DHT22;42612;52.232;7.560;2022-08-19T09:10:51;26.20;53.80
56729;DHT22;42612;52.232;7.560;2022-08-19T09:16:42;26.40;53.50
56729;DHT22;42612;52.232;7.560;2022-08-19T09:19:28;26.50;53.40
56729;DHT22;42612;52.232;7.560;2022-08-19T09:22:14;26.60;53.40
56729;DHT22;42612;52.232;7.560;2022-08-19T09:25:01;26.70;53.20
56729;DHT22;42612;52.232;7.560;2022-08-19T09:27:48;26.70;53.10
56729;DHT22;42612;52.232;7.560;2022-08-19T09:30:38;26.80;53.20
56729;DHT22;42612;52.232;7.560;2022-08-19T09:33:26;26.80;53.00
56729;DHT22;42612;52.232;7.560;2022-08-19T09:36:13;26.90;52.90
56729;DHT22;42612;52.232;7.560;2022-08-19T09:39:03;27.00;53.00
56729;DHT22;42612;52.232;7.560;2022-08-19T09:41:49;27.10;52.90
56729;DHT22;42612;52.232;7.560;2022-08-19T09:44:35;27.10;52.60
56729;DHT22;42612;52.232;7.560;2022-08-19T09:47:21;27.20;52.50
56729;DHT22;42612;52.232;7.560;2022-08-19T09:50:08;27.20;52.30
56729;DHT22;42612;52.232;7.560;2022-08-19T09:52:56;27.30;52.20
56729;DHT22;42612;52.232;7.560;2022-08-19T09:55:43;27.30;52.20
56729;DHT22;42612;52.232;7.560;2022-08-19T09:58:29;27.40;52.20
56729;DHT22;42612;52.232;7.560;2022-08-19T10:01:16;27.40;52.10
56729;DHT22;42612;52.232;7.560;2022-08-19T10:04:04;27.40;51.90
56729;DHT22;42612;52.232;7.560;2022-08-19T10:06:55;27.50;51.80
56729;DHT22;42612;52.232;7.560;2022-08-19T10:09:41;27.50;51.80
56729;DHT22;42612;52.232;7.560;2022-08-19T10:12:27;27.50;51.50
56729;DHT22;42612;52.232;7.560;2022-08-19T10:15:13;27.50;51.50
56729;DHT22;42612;52.232;7.560;2022-08-19T10:18:00;27.60;51.30
56729;DHT22;42612;52.232;7.560;2022-08-19T10:20:46;27.60;51.10
56729;DHT22;42612;52.232;7.560;2022-08-19T10:23:33;27.60;50.90
56729;DHT22;42612;52.232;7.560;2022-08-19T10:26:20;27.70;51.00
56729;DHT22;42612;52.232;7.560;2022-08-19T10:29:07;27.70;50.80
56729;DHT22;42612;52.232;7.560;2022-08-19T10:31:53;27.80;50.70
56729;DHT22;42612;52.232;7.560;2022-08-19T10:34:40;27.90;51.00
56729;DHT22;42612;52.232;7.560;2022-08-19T10:37:26;28.00;50.90
56729;DHT22;42612;52.232;7.560;2022-08-19T10:40:12;28.00;50.90
56729;DHT22;42612;52.232;7.560;2022-08-19T10:42:58;28.10;50.70
56729;DHT22;42612;52.232;7.560;2022-08-19T10:45:48;28.20;50.80
56729;DHT22;42612;52.232;7.560;2022-08-19T10:48:37;28.20;51.40
56729;DHT22;42612;52.232;7.560;2022-08-19T10:51:23;28.30;50.60
56729;DHT22;42612;52.232;7.560;2022-08-19T10:54:27;28.40;50.50
56729;DHT22;42612;52.232;7.560;2022-08-19T10:57:33;28.40;50.30
56729;DHT22;42612;52.232;7.560;2022-08-19T11:00:20;28.40;50.10
56729;DHT22;42612;52.232;7.560;2022-08-19T11:03:08;28.40;49.70
56729;DHT22;42612;52.232;7.560;2022-08-19T11:06:00;28.40;50.00
56729;DHT22;42612;52.232;7.560;2022-08-19T11:08:52;28.40;50.00
56729;DHT22;42612;52.232;7.560;2022-08-19T11:11:39;28.50;50.00
56729;DHT22;42612;52.232;7.560;2022-08-19T11:14:26;28.60;50.10
56729;DHT22;42612;52.232;7.560;2022-08-19T11:17:13;28.60;49.90
56729;DHT22;42612;52.232;7.560;2022-08-19T11:19:59;28.70;50.00
56729;DHT22;42612;52.232;7.560;2022-08-19T11:22:48;28.80;50.10
56729;DHT22;42612;52.232;7.560;2022-08-19T11:25:38;28.90;50.10
56729;DHT22;42612;52.232;7.560;2022-08-19T11:28:24;29.00;49.30
56729;DHT22;42612;52.232;7.560;2022-08-19T11:31:15;29.10;49.70
56729;DHT22;42612;52.232;7.560;2022-08-19T11:34:06;29.10;49.80
56729;DHT22;42612;52.232;7.560;2022-08-19T11:36:53;29.20;49.40
56729;DHT22;42612;52.232;7.560;2022-08-19T11:39:43;29.30;49.40
56729;DHT22;42612;52.232;7.560;2022-08-19T11:42:29;29.40;49.20
56729;DHT22;42612;52.232;7.560;2022-08-19T11:45:34;29.50;49.30
56729;DHT22;42612;52.232;7.560;2022-08-19T11:48:19;29.60;49.30
56729;DHT22;42612;52.232;7.560;2022-08-19T11:51:09;29.70;48.60
56729;DHT22;42612;52.232;7.560;2022-08-19T11:54:00;29.70;49.00
56729;DHT22;42612;52.232;7.560;2022-08-19T11:56:47;29.70;48.80
56729;DHT22;42612;52.232;7.560;2022-08-19T11:59:34;29.80;48.60
56729;DHT22;42612;52.232;7.560;2022-08-19T12:02:20;29.80;48.50
56729;DHT22;42612;52.232;7.560;2022-08-19T12:05:07;29.80;48.20
56729;DHT22;42612;52.232;7.560;2022-08-19T12:07:53;29.70;47.90
56729;DHT22;42612;52.232;7.560;2022-08-19T12:10:39;29.70;47.80
56729;DHT22;42612;52.232;7.560;2022-08-19T12:13:28;29.60;47.40
56729;DHT22;42612;52.232;7.560;2022-08-19T12:16:17;29.60;46.20
56729;DHT22;42612;52.232;7.560;2022-08-19T12:19:05;29.50;47.50
56729;DHT22;42612;52.232;7.560;2022-08-19T12:21:51;29.40;47.60
56729;DHT22;42612;52.232;7.560;2022-08-19T12:24:38;29.40;47.60
56729;DHT22;42612;52.232;7.560;2022-08-19T12:27:24;29.40;46.90
56729;DHT22;42612;52.232;7.560;2022-08-19T12:30:11;29.50;47.40
56729;DHT22;42612;52.232;7.560;2022-08-19T12:32:57;29.50;47.50
56729;DHT22;42612;52.232;7.560;2022-08-19T12:35:44;29.50;48.30
56729;DHT22;42612;52.232;7.560;2022-08-19T12:38:32;29.60;47.40
56729;DHT22;42612;52.232;7.560;2022-08-19T12:41:19;29.70;47.70
56729;DHT22;42612;52.232;7.560;2022-08-19T12:44:07;29.70;47.70
56729;DHT22;42612;52.232;7.560;2022-08-19T12:46:53;29.80;48.00
56729;DHT22;42612;52.232;7.560;2022-08-19T12:49:39;30.00;48.30
56729;DHT22;42612;52.232;7.560;2022-08-19T12:52:26;30.10;48.30
56729;DHT22;42612;52.232;7.560;2022-08-19T12:55:12;30.20;47.80
56729;DHT22;42612;52.232;7.560;2022-08-19T12:57:58;30.30;46.90
56729;DHT22;42612;52.232;7.560;2022-08-19T13:00:46;30.40;47.10
56729;DHT22;42612;52.232;7.560;2022-08-19T13:03:32;30.50;47.00
56729;DHT22;42612;52.232;7.560;2022-08-19T13:06:18;30.60;47.20
56729;DHT22;42612;52.232;7.560;2022-08-19T13:09:04;30.80;47.20
56729;DHT22;42612;52.232;7.560;2022-08-19T13:11:50;30.90;46.70
56729;DHT22;42612;52.232;7.560;2022-08-19T13:14:36;31.00;47.30
56729;DHT22;42612;52.232;7.560;2022-08-19T13:17:23;31.10;46.90
56729;DHT22;42612;52.232;7.560;2022-08-19T13:20:09;31.20;46.50
56729;DHT22;42612;52.232;7.560;2022-08-19T13:22:56;31.30;46.60
56729;DHT22;42612;52.232;7.560;2022-08-19T13:25:42;31.30;46.30
56729;DHT22;42612;52.232;7.560;2022-08-19T13:28:28;31.30;45.50
56729;DHT22;42612;52.232;7.560;2022-08-19T13:31:35;31.30;45.90
56729;DHT22;42612;52.232;7.560;2022-08-19T13:34:40;31.20;45.50
56729;DHT22;42612;52.232;7.560;2022-08-19T13:37:26;31.00;45.50
56729;DHT22;42612;52.232;7.560;2022-08-19T13:40:27;30.90;45.20
56729;DHT22;42612;52.232;7.560;2022-08-19T13:43:14;30.80;45.30
56729;DHT22;42612;52.232;7.560;2022-08-19T13:46:07;30.70;45.20
56729;DHT22;42612;52.232;7.560;2022-08-19T13:48:55;30.70;45.30
56729;DHT22;42612;52.232;7.560;2022-08-19T13:51:42;30.60;45.80
56729;DHT22;42612;52.232;7.560;2022-08-19T13:54:28;30.50;45.90
56729;DHT22;42612;52.232;7.560;2022-08-19T13:57:14;30.50;45.60
56729;DHT22;42612;52.232;7.560;2022-08-19T14:00:00;30.50;45.30
56729;DHT22;42612;52.232;7.560;2022-08-19T14:02:47;30.50;45.20
56729;DHT22;42612;52.232;7.560;2022-08-19T14:05:36;30.40;45.20
56729;DHT22;42612;52.232;7.560;2022-08-19T14:08:24;30.40;45.20
56729;DHT22;42612;52.232;7.560;2022-08-19T14:11:11;30.30;45.00
56729;DHT22;42612;52.232;7.560;2022-08-19T14:13:57;30.30;45.20
56729;DHT22;42612;52.232;7.560;2022-08-19T14:16:43;30.30;45.20
56729;DHT22;42612;52.232;7.560;2022-08-19T14:19:29;30.20;45.10
56729;DHT22;42612;52.232;7.560;2022-08-19T14:22:15;30.20;45.20
56729;DHT22;42612;52.232;7.560;2022-08-19T14:25:00;30.10;45.10
56729;DHT22;42612;52.232;7.560;2022-08-19T14:27:47;30.10;45.30
56729;DHT22;42612;52.232;7.560;2022-08-19T14:30:34;30.10;45.20
56729;DHT22;42612;52.232;7.560;2022-08-19T14:33:23;30.10;45.20
56729;DHT22;42612;52.232;7.560;2022-08-19T14:36:09;30.00;44.80
56729;DHT22;42612;52.232;7.560;2022-08-19T14:38:55;29.90;44.90
56729;DHT22;42612;52.232;7.560;2022-08-19T14:41:41;29.90;45.00
56729;DHT22;42612;52.232;7.560;2022-08-19T14:44:30;29.90;45.10
56729;DHT22;42612;52.232;7.560;2022-08-19T14:47:17;29.90;45.00
56729;DHT22;42612;52.232;7.560;2022-08-19T14:50:03;29.80;45.00
56729;DHT22;42612;52.232;7.560;2022-08-19T14:52:57;29.80;45.10
56729;DHT22;42612;52.232;7.560;2022-08-19T14:55:45;29.80;45.10
56729;DHT22;42612;52.232;7.560;2022-08-19T14:58:32;29.90;45.10
56729;DHT22;42612;52.232;7.560;2022-08-19T15:01:18;29.90;45.10
56729;DHT22;42612;52.232;7.560;2022-08-19T15:04:05;29.80;44.90
56729;DHT22;42612;52.232;7.560;2022-08-19T15:06:51;29.80;44.90
56729;DHT22;42612;52.232;7.560;2022-08-19T15:09:37;29.80;45.00
56729;DHT22;42612;52.232;7.560;2022-08-19T15:12:24;29.80;45.10
56729;DHT22;42612;52.232;7.560;2022-08-19T15:15:11;29.80;45.10
56729;DHT22;42612;52.232;7.560;2022-08-19T15:17:58;29.80;45.00
56729;DHT22;42612;52.232;7.560;2022-08-19T15:20:48;29.80;45.00
56729;DHT22;42612;52.232;7.560;2022-08-19T15:23:34;29.80;45.00
56729;DHT22;42612;52.232;7.560;2022-08-19T15:26:21;29.70;44.80
56729;DHT22;42612;52.232;7.560;2022-08-19T15:29:07;29.70;44.80
56729;DHT22;42612;52.232;7.560;2022-08-19T15:31:54;29.70;44.80
56729;DHT22;42612;52.232;7.560;2022-08-19T15:34:43;29.70;44.80
56729;DHT22;42612;52.232;7.560;2022-08-19T15:37:29;29.70;45.00
56729;DHT22;42612;52.232;7.560;2022-08-19T15:40:15;29.70;44.90
56729;DHT22;42612;52.232;7.560;2022-08-19T15:43:01;29.70;45.00
56729;DHT22;42612;52.232;7.560;2022-08-19T15:45:47;29.70;44.90
56729;DHT22;42612;52.232;7.560;2022-08-19T15:48:33;29.70;44.90
56729;DHT22;42612;52.232;7.560;2022-08-19T15:51:19;29.60;44.90
56729;DHT22;42612;52.232;7.560;2022-08-19T15:54:06;29.60;44.90
56729;DHT22;42612;52.232;7.560;2022-08-19T15:56:53;29.60;45.00
56729;DHT22;42612;52.232;7.560;2022-08-19T15:59:58;29.60;45.00
56729;DHT22;42612;52.232;7.560;2022-08-19T16:03:02;29.60;44.90
56729;DHT22;42612;52.232;7.560;2022-08-19T16:06:07;29.60;44.90
56729;DHT22;42612;52.232;7.560;2022-08-19T16:09:11;29.60;44.80
56729;DHT22;42612;52.232;7.560;2022-08-19T16:11:58;29.60;44.80
56729;DHT22;42612;52.232;7.560;2022-08-19T16:14:48;29.60;44.80
56729;DHT22;42612;52.232;7.560;2022-08-19T16:17:34;29.60;44.80
56729;DHT22;42612;52.232;7.560;2022-08-19T16:20:20;29.50;44.80
56729;DHT22;42612;52.232;7.560;2022-08-19T16:23:06;29.50;44.80
56729;DHT22;42612;52.232;7.560;2022-08-19T16:25:52;29.50;44.80
56729;DHT22;42612;52.232;7.560;2022-08-19T16:28:39;29.40;44.80
56729;DHT22;42612;52.232;7.560;2022-08-19T16:31:25;29.40;44.80
56729;DHT22;42612;52.232;7.560;2022-08-19T16:34:12;29.40;44.80
56729;DHT22;42612;52.232;7.560;2022-08-19T16:36:59;29.40;44.90
56729;DHT22;42612;52.232;7.560;2022-08-19T16:39:44;29.40;45.00
56729;DHT22;42612;52.232;7.560;2022-08-19T16:42:31;29.40;45.10
56729;DHT22;42612;52.232;7.560;2022-08-19T16:45:18;29.40;45.00
56729;DHT22;42612;52.232;7.560;2022-08-19T16:48:06;29.30;44.90
56729;DHT22;42612;52.232;7.560;2022-08-19T16:50:52;29.30;45.00
56729;DHT22;42612;52.232;7.560;2022-08-19T16:53:39;29.30;45.00
56729;DHT22;42612;52.232;7.560;2022-08-19T16:56:26;29.30;45.10
56729;DHT22;42612;52.232;7.560;2022-08-19T16:59:13;29.30;45.10
56729;DHT22;42612;52.232;7.560;2022-08-19T17:02:00;29.30;45.20
56729;DHT22;42612;52.232;7.560;2022-08-19T17:04:46;29.30;45.20
56729;DHT22;42612;52.232;7.560;2022-08-19T17:07:34;29.20;45.20
56729;DHT22;42612;52.232;7.560;2022-08-19T17:10:20;29.20;45.30
56729;DHT22;42612;52.232;7.560;2022-08-19T17:13:06;29.30;45.40
56729;DHT22;42612;52.232;7.560;2022-08-19T17:15:52;29.20;46.10
56729;DHT22;42612;52.232;7.560;2022-08-19T17:18:39;29.20;45.40
56729;DHT22;42612;52.232;7.560;2022-08-19T17:21:26;29.20;45.40
56729;DHT22;42612;52.232;7.560;2022-08-19T17:24:13;29.10;45.40
56729;DHT22;42612;52.232;7.560;2022-08-19T17:26:59;29.10;45.40
56729;DHT22;42612;52.232;7.560;2022-08-19T17:29:45;29.10;45.40
56729;DHT22;42612;52.232;7.560;2022-08-19T17:32:32;29.10;45.50
56729;DHT22;42612;52.232;7.560;2022-08-19T17:35:19;29.10;45.60
56729;DHT22;42612;52.232;7.560;2022-08-19T17:38:07;29.10;45.70
56729;DHT22;42612;52.232;7.560;2022-08-19T17:40:53;29.00;45.60
56729;DHT22;42612;52.232;7.560;2022-08-19T17:43:45;29.00;45.60
56729;DHT22;42612;52.232;7.560;2022-08-19T17:46:31;28.90;45.60
56729;DHT22;42612;52.232;7.560;2022-08-19T17:49:17;28.90;45.60